DLH480 EDDM-KDEN
Flight info
| Callsign | DLH480 |
|---|---|
| Flight time | N/A |
| Altitude | 36000 |
| Route | INPUD3Q INPUD Y102 UPALA Z109 BAMKI DCT NOMKA DCT KEGAB DCT REXMI DCT KARLI DCT GUNPA/M085F360 DCT 66N010W/M085F380 6830N02000W 70N030W 7030N04000W 70N050W 69N060W DCT BOPUT/N0487F380 DCT 6730N07000W 6430N08000W/N0492F400 5930N09000W DCT YGX DCT AMENU DCT KP09Y DCT RAP/N0478F410 DCT NYTRO AALLE4 |
| Aircraft | A359/H-SADE2E3GHIJ1J2J3J4J5M1P2RWXYZ/LB1D1 |
Departure
| Time | N/A |
|---|---|
| Airport | Munich Airport (EDDM) |
Arrival
| Time | 2026-05-03 20:40 |
|---|---|
| Airport | Denver International Airport (KDEN) |
| Time | Latitude | Longitude | Altitude | Speed | Heading |
|---|---|---|---|---|---|
| 2026-05-03 20:15 | 41.22085 | -103.16741 | 34544 ft | 483 kts | 188° |
| 2026-05-03 20:15 | 41.18737 | -103.16860 | 34030 ft | 479 kts | 188° |
| 2026-05-03 20:15 | 41.15425 | -103.16980 | 33461 ft | 475 kts | 188° |
| 2026-05-03 20:15 | 41.12138 | -103.17100 | 32937 ft | 470 kts | 188° |
| 2026-05-03 20:16 | 41.08914 | -103.17227 | 32674 ft | 458 kts | 189° |
| 2026-05-03 20:16 | 41.05797 | -103.17723 | 32186 ft | 445 kts | 199° |
| 2026-05-03 20:16 | 41.02902 | -103.18936 | 31710 ft | 429 kts | 210° |
| 2026-05-03 20:16 | 41.00324 | -103.20800 | 31311 ft | 418 kts | 220° |
| 2026-05-03 20:17 | 40.97983 | -103.23060 | 30930 ft | 416 kts | 223° |
| 2026-05-03 20:17 | 40.95687 | -103.25390 | 30537 ft | 416 kts | 223° |
| 2026-05-03 20:17 | 40.93396 | -103.27713 | 30156 ft | 414 kts | 223° |
| 2026-05-03 20:17 | 40.91148 | -103.29984 | 29737 ft | 411 kts | 222° |
| 2026-05-03 20:18 | 40.88879 | -103.32268 | 29333 ft | 409 kts | 222° |
| 2026-05-03 20:18 | 40.86619 | -103.34538 | 28947 ft | 407 kts | 222° |
| 2026-05-03 20:18 | 40.84368 | -103.36795 | 28562 ft | 405 kts | 222° |
| 2026-05-03 20:18 | 40.82125 | -103.39041 | 28182 ft | 404 kts | 222° |
| 2026-05-03 20:19 | 40.79890 | -103.41279 | 27800 ft | 402 kts | 222° |
| 2026-05-03 20:19 | 40.77665 | -103.43505 | 27468 ft | 401 kts | 222° |
| 2026-05-03 20:19 | 40.75445 | -103.45714 | 27087 ft | 399 kts | 222° |
| 2026-05-03 20:19 | 40.73230 | -103.47916 | 26721 ft | 398 kts | 222° |
| 2026-05-03 20:20 | 40.71737 | -103.49400 | 26456 ft | 397 kts | 221° |
| 2026-05-03 20:20 | 40.69534 | -103.51588 | 26088 ft | 396 kts | 221° |
| 2026-05-03 20:20 | 40.67341 | -103.53765 | 25707 ft | 394 kts | 221° |
| 2026-05-03 20:20 | 40.65158 | -103.55932 | 25342 ft | 392 kts | 221° |
| 2026-05-03 20:21 | 40.62987 | -103.58087 | 24971 ft | 390 kts | 221° |
| 2026-05-03 20:21 | 40.60834 | -103.60243 | 24601 ft | 389 kts | 221° |
| 2026-05-03 20:21 | 40.58681 | -103.62396 | 24229 ft | 387 kts | 221° |
| 2026-05-03 20:21 | 40.56567 | -103.64507 | 23884 ft | 386 kts | 221° |
| 2026-05-03 20:22 | 40.54407 | -103.66664 | 23518 ft | 384 kts | 221° |
| 2026-05-03 20:22 | 40.52280 | -103.68785 | 23119 ft | 383 kts | 221° |
| 2026-05-03 20:22 | 40.50167 | -103.70890 | 22761 ft | 380 kts | 221° |
| 2026-05-03 20:22 | 40.48093 | -103.72955 | 22407 ft | 378 kts | 221° |
| 2026-05-03 20:23 | 40.46055 | -103.75108 | 22050 ft | 373 kts | 227° |
| 2026-05-03 20:23 | 40.44424 | -103.77699 | 21765 ft | 366 kts | 240° |
| 2026-05-03 20:23 | 40.43085 | -103.80526 | 21499 ft | 363 kts | 242° |
| 2026-05-03 20:23 | 40.41795 | -103.83367 | 21223 ft | 362 kts | 242° |
| 2026-05-03 20:24 | 40.40507 | -103.86201 | 20926 ft | 361 kts | 242° |
| 2026-05-03 20:24 | 40.39221 | -103.89019 | 20648 ft | 360 kts | 241° |
| 2026-05-03 20:24 | 40.37933 | -103.91830 | 20369 ft | 359 kts | 241° |
| 2026-05-03 20:24 | 40.36658 | -103.94605 | 20189 ft | 349 kts | 241° |
| 2026-05-03 20:25 | 40.35425 | -103.97281 | 20021 ft | 337 kts | 241° |
| 2026-05-03 20:25 | 40.34232 | -103.99870 | 19815 ft | 327 kts | 241° |
| 2026-05-03 20:25 | 40.33065 | -104.02400 | 19527 ft | 321 kts | 241° |
| 2026-05-03 20:25 | 40.31889 | -104.04852 | 19253 ft | 316 kts | 236° |
| 2026-05-03 20:26 | 40.30396 | -104.06958 | 18848 ft | 317 kts | 224° |
| 2026-05-03 20:26 | 40.28707 | -104.08822 | 18458 ft | 317 kts | 222° |
| 2026-05-03 20:26 | 40.26996 | -104.10635 | 18147 ft | 316 kts | 221° |
| 2026-05-03 20:26 | 40.25289 | -104.12445 | 17845 ft | 315 kts | 221° |
| 2026-05-03 20:27 | 40.23584 | -104.14257 | 17553 ft | 316 kts | 221° |
| 2026-05-03 20:27 | 40.21879 | -104.16073 | 17288 ft | 315 kts | 221° |
| 2026-05-03 20:27 | 40.20181 | -104.17884 | 16980 ft | 314 kts | 221° |
| 2026-05-03 20:27 | 40.18492 | -104.19686 | 16705 ft | 313 kts | 221° |
| 2026-05-03 20:28 | 40.16807 | -104.21485 | 16443 ft | 312 kts | 221° |
| 2026-05-03 20:28 | 40.15128 | -104.23276 | 16159 ft | 312 kts | 221° |
| 2026-05-03 20:28 | 40.13451 | -104.25072 | 15895 ft | 311 kts | 221° |
| 2026-05-03 20:28 | 40.11772 | -104.26860 | 15615 ft | 311 kts | 221° |
| 2026-05-03 20:29 | 40.10099 | -104.28637 | 15354 ft | 309 kts | 221° |
| 2026-05-03 20:29 | 40.08437 | -104.30402 | 15085 ft | 308 kts | 221° |
| 2026-05-03 20:29 | 40.06777 | -104.32165 | 14841 ft | 308 kts | 221° |
| 2026-05-03 20:29 | 40.05038 | -104.34017 | 14756 ft | 337 kts | 221° |
| 2026-05-03 20:30 | 40.03184 | -104.35991 | 14703 ft | 346 kts | 221° |
| 2026-05-03 20:30 | 40.01346 | -104.37941 | 14531 ft | 335 kts | 221° |
| 2026-05-03 20:30 | 39.99569 | -104.39816 | 14361 ft | 323 kts | 221° |
| 2026-05-03 20:30 | 39.97854 | -104.41626 | 14207 ft | 312 kts | 221° |
| 2026-05-03 20:31 | 39.96192 | -104.43385 | 13943 ft | 305 kts | 222° |
| 2026-05-03 20:31 | 39.94556 | -104.45122 | 13579 ft | 302 kts | 222° |
| 2026-05-03 20:31 | 39.92933 | -104.46844 | 13149 ft | 300 kts | 222° |
| 2026-05-03 20:31 | 39.91282 | -104.48573 | 12432 ft | 309 kts | 219° |
| 2026-05-03 20:32 | 39.89342 | -104.49739 | 12125 ft | 308 kts | 195° |
| 2026-05-03 20:32 | 39.87244 | -104.50013 | 11997 ft | 299 kts | 184° |
| 2026-05-03 20:32 | 39.85198 | -104.50047 | 11848 ft | 288 kts | 183° |
| 2026-05-03 20:32 | 39.83232 | -104.50060 | 11712 ft | 277 kts | 183° |
| 2026-05-03 20:33 | 39.81342 | -104.50078 | 11586 ft | 266 kts | 184° |
| 2026-05-03 20:33 | 39.79521 | -104.50102 | 11432 ft | 258 kts | 184° |
| 2026-05-03 20:33 | 39.77759 | -104.50119 | 11134 ft | 255 kts | 183° |
| 2026-05-03 20:33 | 39.75987 | -104.50116 | 10824 ft | 254 kts | 182° |
| 2026-05-03 20:34 | 39.74200 | -104.50112 | 10514 ft | 253 kts | 182° |
| 2026-05-03 20:34 | 39.72473 | -104.50111 | 10219 ft | 251 kts | 183° |
| 2026-05-03 20:34 | 39.70742 | -104.50254 | 9850 ft | 248 kts | 197° |
| 2026-05-03 20:34 | 39.69263 | -104.51297 | 9461 ft | 241 kts | 227° |
| 2026-05-03 20:35 | 39.68421 | -104.53115 | 9085 ft | 236 kts | 256° |
| 2026-05-03 20:35 | 39.68166 | -104.55188 | 8885 ft | 228 kts | 266° |
| 2026-05-03 20:35 | 39.68059 | -104.57192 | 8768 ft | 217 kts | 267° |
| 2026-05-03 20:35 | 39.67976 | -104.59091 | 8639 ft | 205 kts | 267° |
| 2026-05-03 20:36 | 39.68080 | -104.60893 | 8487 ft | 199 kts | 282° |
| 2026-05-03 20:36 | 39.68637 | -104.62508 | 8354 ft | 198 kts | 305° |
| 2026-05-03 20:36 | 39.69792 | -104.63465 | 8195 ft | 203 kts | 342° |
| 2026-05-03 20:36 | 39.71191 | -104.63790 | 7844 ft | 207 kts | 351° |
| 2026-05-03 20:37 | 39.72616 | -104.63992 | 7442 ft | 202 kts | 352° |
| 2026-05-03 20:37 | 39.73964 | -104.64235 | 7233 ft | 189 kts | 354° |
| 2026-05-03 20:37 | 39.75244 | -104.64222 | 7022 ft | 179 kts | 358° |
| 2026-05-03 20:37 | 39.76458 | -104.64234 | 6797 ft | 171 kts | 355° |
| 2026-05-03 20:38 | 39.77624 | -104.64220 | 6593 ft | 164 kts | 356° |
| 2026-05-03 20:38 | 39.78748 | -104.64209 | 6385 ft | 159 kts | 358° |
| 2026-05-03 20:38 | 39.79832 | -104.64198 | 6151 ft | 153 kts | 352° |
| 2026-05-03 20:38 | 39.80892 | -104.64192 | 5906 ft | 151 kts | 355° |
| 2026-05-03 20:39 | 39.81935 | -104.64179 | 5686 ft | 150 kts | 355° |
| 2026-05-03 20:39 | 39.82977 | -104.64163 | 5458 ft | 148 kts | 354° |
| 2026-05-03 20:39 | 39.83991 | -104.64152 | 5371 ft | 140 kts | 0° |
| 2026-05-03 20:39 | 39.84780 | -104.64145 | 5370 ft | 82 kts | 1° |
| 2026-05-03 20:40 | 39.85173 | -104.64143 | 5369 ft | 46 kts | 0° |
| 2026-05-03 20:40 | 39.85437 | -104.64154 | 5370 ft | 34 kts | 351° |
| 2026-05-03 20:40 | 39.85609 | -104.64231 | 5369 ft | 19 kts | 333° |
| 2026-05-03 20:40 | 39.85662 | -104.64325 | 5368 ft | 12 kts | 279° |
| 2026-05-03 20:41 | 39.85664 | -104.64438 | 5369 ft | 13 kts | 271° |
| 2026-05-03 20:41 | 39.85665 | -104.64554 | 5370 ft | 13 kts | 270° |
| 2026-05-03 20:41 | 39.85662 | -104.64673 | 5369 ft | 12 kts | 267° |
| 2026-05-03 20:41 | 39.85666 | -104.64807 | 5371 ft | 18 kts | 272° |
| 2026-05-03 20:42 | 39.85667 | -104.64970 | 5371 ft | 18 kts | 271° |
| 2026-05-03 20:42 | 39.85669 | -104.65132 | 5370 ft | 18 kts | 270° |
| 2026-05-03 20:42 | 39.85671 | -104.65295 | 5370 ft | 18 kts | 271° |
| 2026-05-03 20:42 | 39.85672 | -104.65459 | 5370 ft | 18 kts | 270° |
| 2026-05-03 20:43 | 39.85673 | -104.65620 | 5368 ft | 17 kts | 270° |
| 2026-05-03 20:43 | 39.85675 | -104.65778 | 5369 ft | 17 kts | 271° |
| 2026-05-03 20:43 | 39.85675 | -104.65933 | 5369 ft | 17 kts | 270° |
| 2026-05-03 20:43 | 39.85677 | -104.66086 | 5369 ft | 17 kts | 270° |
| 2026-05-03 20:44 | 39.85678 | -104.66239 | 5369 ft | 17 kts | 270° |
| 2026-05-03 20:44 | 39.85680 | -104.66387 | 5369 ft | 16 kts | 271° |
| 2026-05-03 20:44 | 39.85654 | -104.66493 | 5368 ft | 12 kts | 210° |
| 2026-05-03 20:44 | 39.85590 | -104.66552 | 5369 ft | 11 kts | 248° |
| 2026-05-03 20:45 | 39.85586 | -104.66656 | 5369 ft | 12 kts | 272° |
| 2026-05-03 20:45 | 39.85587 | -104.66764 | 5369 ft | 12 kts | 270° |
| 2026-05-03 20:45 | 39.85588 | -104.66875 | 5369 ft | 13 kts | 270° |
| 2026-05-03 20:45 | 39.85589 | -104.66992 | 5369 ft | 13 kts | 270° |
| 2026-05-03 20:46 | 39.85589 | -104.67096 | 5369 ft | 9 kts | 270° |
| 2026-05-03 20:46 | 39.85590 | -104.67181 | 5369 ft | 10 kts | 270° |
| 2026-05-03 20:46 | 39.85585 | -104.67269 | 5370 ft | 9 kts | 251° |
| 2026-05-03 20:46 | 39.85536 | -104.67312 | 5368 ft | 9 kts | 187° |
| 2026-05-03 20:47 | 39.85480 | -104.67312 | 5370 ft | 5 kts | 179° |
| 2026-05-03 20:47 | 39.85451 | -104.67312 | 5370 ft | 1 kts | 179° |
| 2026-05-03 20:47 | 39.85447 | -104.67312 | 5370 ft | 0 kts | 179° |
| 2026-05-03 20:48 | 39.85444 | -104.67311 | 5370 ft | 0 kts | 179° |